sensor_id;sensor_type;location;lat;lon;timestamp;temperature;humidity
24049;DHT22;12250;50.956;4.746;2022-11-15T00:02:07;11.60;99.90
24049;DHT22;12250;50.956;4.746;2022-11-15T00:04:33;11.60;99.90
24049;DHT22;12250;50.956;4.746;2022-11-15T00:06:59;11.60;99.90
24049;DHT22;12250;50.956;4.746;2022-11-15T00:09:24;11.60;99.90
24049;DHT22;12250;50.956;4.746;2022-11-15T00:11:51;11.60;99.90
24049;DHT22;12250;50.956;4.746;2022-11-15T00:14:17;11.60;99.90
24049;DHT22;12250;50.956;4.746;2022-11-15T00:16:43;11.60;99.90
24049;DHT22;12250;50.956;4.746;2022-11-15T00:19:09;11.60;99.90
24049;DHT22;12250;50.956;4.746;2022-11-15T00:21:34;11.70;99.90
24049;DHT22;12250;50.956;4.746;2022-11-15T00:24:00;11.70;99.90
24049;DHT22;12250;50.956;4.746;2022-11-15T00:26:25;11.80;99.90
24049;DHT22;12250;50.956;4.746;2022-11-15T00:28:54;11.80;99.90
24049;DHT22;12250;50.956;4.746;2022-11-15T00:31:20;11.80;99.90
24049;DHT22;12250;50.956;4.746;2022-11-15T00:33:45;11.80;99.90
24049;DHT22;12250;50.956;4.746;2022-11-15T00:36:12;11.80;99.90
24049;DHT22;12250;50.956;4.746;2022-11-15T00:38:39;11.80;99.90
24049;DHT22;12250;50.956;4.746;2022-11-15T00:41:06;11.80;99.90
24049;DHT22;12250;50.956;4.746;2022-11-15T00:43:32;11.80;99.90
24049;DHT22;12250;50.956;4.746;2022-11-15T00:45:58;11.90;99.90
24049;DHT22;12250;50.956;4.746;2022-11-15T00:48:24;11.90;99.90
24049;DHT22;12250;50.956;4.746;2022-11-15T00:50:50;11.90;99.90
24049;DHT22;12250;50.956;4.746;2022-11-15T00:53:16;11.90;99.90
24049;DHT22;12250;50.956;4.746;2022-11-15T00:55:42;12.00;99.90
24049;DHT22;12250;50.956;4.746;2022-11-15T00:58:08;12.00;99.90
24049;DHT22;12250;50.956;4.746;2022-11-15T01:00:34;12.00;99.90
24049;DHT22;12250;50.956;4.746;2022-11-15T01:03:00;12.00;99.90
24049;DHT22;12250;50.956;4.746;2022-11-15T01:05:27;12.00;99.90
24049;DHT22;12250;50.956;4.746;2022-11-15T01:07:54;12.00;99.90
24049;DHT22;12250;50.956;4.746;2022-11-15T01:10:20;12.10;99.90
24049;DHT22;12250;50.956;4.746;2022-11-15T01:12:45;12.10;99.90
24049;DHT22;12250;50.956;4.746;2022-11-15T01:15:11;12.10;99.90
24049;DHT22;12250;50.956;4.746;2022-11-15T01:17:37;12.10;99.90
24049;DHT22;12250;50.956;4.746;2022-11-15T01:20:03;12.10;99.90
24049;DHT22;12250;50.956;4.746;2022-11-15T01:22:29;12.10;99.90
24049;DHT22;12250;50.956;4.746;2022-11-15T01:24:54;12.20;99.90
24049;DHT22;12250;50.956;4.746;2022-11-15T01:27:20;12.20;99.90
24049;DHT22;12250;50.956;4.746;2022-11-15T01:29:46;12.20;99.90
24049;DHT22;12250;50.956;4.746;2022-11-15T01:32:11;12.20;99.90
24049;DHT22;12250;50.956;4.746;2022-11-15T01:34:37;12.30;99.90
24049;DHT22;12250;50.956;4.746;2022-11-15T01:37:03;12.30;99.90
24049;DHT22;12250;50.956;4.746;2022-11-15T01:39:28;12.30;99.90
24049;DHT22;12250;50.956;4.746;2022-11-15T01:41:54;12.30;99.90
24049;DHT22;12250;50.956;4.746;2022-11-15T01:44:47;12.30;99.90
24049;DHT22;12250;50.956;4.746;2022-11-15T01:49:51;12.40;99.90
24049;DHT22;12250;50.956;4.746;2022-11-15T01:52:21;12.30;99.90
24049;DHT22;12250;50.956;4.746;2022-11-15T01:54:50;12.30;99.90
24049;DHT22;12250;50.956;4.746;2022-11-15T01:57:18;12.30;99.90
24049;DHT22;12250;50.956;4.746;2022-11-15T01:59:45;12.30;99.90
24049;DHT22;12250;50.956;4.746;2022-11-15T02:02:11;12.40;99.90
24049;DHT22;12250;50.956;4.746;2022-11-15T02:04:45;12.40;99.90
24049;DHT22;12250;50.956;4.746;2022-11-15T02:07:13;12.40;99.90
24049;DHT22;12250;50.956;4.746;2022-11-15T02:09:40;12.40;99.90
24049;DHT22;12250;50.956;4.746;2022-11-15T02:12:08;12.40;99.90
24049;DHT22;12250;50.956;4.746;2022-11-15T02:14:36;12.40;99.90
24049;DHT22;12250;50.956;4.746;2022-11-15T02:28:27;12.40;99.90
24049;DHT22;12250;50.956;4.746;2022-11-15T02:31:23;12.30;99.90
24049;DHT22;12250;50.956;4.746;2022-11-15T02:34:24;12.40;99.90
24049;DHT22;12250;50.956;4.746;2022-11-15T02:37:03;12.40;99.90
24049;DHT22;12250;50.956;4.746;2022-11-15T02:39:46;12.30;99.90
24049;DHT22;12250;50.956;4.746;2022-11-15T02:42:42;12.30;99.90
24049;DHT22;12250;50.956;4.746;2022-11-15T02:45:35;12.30;99.90
24049;DHT22;12250;50.956;4.746;2022-11-15T02:48:03;12.30;99.90
24049;DHT22;12250;50.956;4.746;2022-11-15T02:50:30;12.20;99.90
24049;DHT22;12250;50.956;4.746;2022-11-15T02:52:58;12.30;99.90
24049;DHT22;12250;50.956;4.746;2022-11-15T02:55:32;12.30;99.90
24049;DHT22;12250;50.956;4.746;2022-11-15T03:01:00;12.20;99.90
24049;DHT22;12250;50.956;4.746;2022-11-15T03:06:55;12.30;99.90
24049;DHT22;12250;50.956;4.746;2022-11-15T03:09:36;12.30;99.90
24049;DHT22;12250;50.956;4.746;2022-11-15T03:12:12;12.40;99.90
24049;DHT22;12250;50.956;4.746;2022-11-15T03:14:54;12.30;99.90
24049;DHT22;12250;50.956;4.746;2022-11-15T03:17:29;12.30;99.90
24049;DHT22;12250;50.956;4.746;2022-11-15T03:20:01;12.30;99.90
24049;DHT22;12250;50.956;4.746;2022-11-15T03:22:30;12.30;99.90
24049;DHT22;12250;50.956;4.746;2022-11-15T03:25:01;12.40;99.90
24049;DHT22;12250;50.956;4.746;2022-11-15T03:27:31;12.40;99.90
24049;DHT22;12250;50.956;4.746;2022-11-15T03:30:01;12.40;99.90
24049;DHT22;12250;50.956;4.746;2022-11-15T03:32:33;12.30;99.90
24049;DHT22;12250;50.956;4.746;2022-11-15T03:35:23;12.30;99.90
24049;DHT22;12250;50.956;4.746;2022-11-15T03:38:00;12.40;99.90
24049;DHT22;12250;50.956;4.746;2022-11-15T03:40:44;12.40;99.90
24049;DHT22;12250;50.956;4.746;2022-11-15T03:45:56;12.30;99.90
24049;DHT22;12250;50.956;4.746;2022-11-15T03:48:27;12.40;99.90
24049;DHT22;12250;50.956;4.746;2022-11-15T03:50:55;12.40;99.90
24049;DHT22;12250;50.956;4.746;2022-11-15T03:53:21;12.40;99.90
24049;DHT22;12250;50.956;4.746;2022-11-15T03:55:47;12.40;99.90
24049;DHT22;12250;50.956;4.746;2022-11-15T03:58:13;12.40;99.90
24049;DHT22;12250;50.956;4.746;2022-11-15T04:00:38;12.40;99.90
24049;DHT22;12250;50.956;4.746;2022-11-15T04:03:04;12.40;99.90
24049;DHT22;12250;50.956;4.746;2022-11-15T04:05:29;12.50;99.90
24049;DHT22;12250;50.956;4.746;2022-11-15T04:07:55;12.40;99.90
24049;DHT22;12250;50.956;4.746;2022-11-15T04:10:21;12.40;99.90
24049;DHT22;12250;50.956;4.746;2022-11-15T04:12:47;12.40;99.90
24049;DHT22;12250;50.956;4.746;2022-11-15T04:15:18;12.40;99.90
24049;DHT22;12250;50.956;4.746;2022-11-15T04:20:19;12.40;99.90
24049;DHT22;12250;50.956;4.746;2022-11-15T04:23:13;12.30;99.90
24049;DHT22;12250;50.956;4.746;2022-11-15T04:26:12;12.30;99.90
24049;DHT22;12250;50.956;4.746;2022-11-15T04:28:39;12.30;99.90
24049;DHT22;12250;50.956;4.746;2022-11-15T04:31:28;12.30;99.90
24049;DHT22;12250;50.956;4.746;2022-11-15T04:33:54;12.30;99.90
24049;DHT22;12250;50.956;4.746;2022-11-15T04:36:21;12.30;99.90
24049;DHT22;12250;50.956;4.746;2022-11-15T04:39:05;12.30;99.90
24049;DHT22;12250;50.956;4.746;2022-11-15T04:41:31;12.20;99.90
24049;DHT22;12250;50.956;4.746;2022-11-15T04:43:56;12.20;99.90
24049;DHT22;12250;50.956;4.746;2022-11-15T04:46:25;12.20;99.90
24049;DHT22;12250;50.956;4.746;2022-11-15T04:48:52;12.20;99.90
24049;DHT22;12250;50.956;4.746;2022-11-15T04:51:18;12.10;99.90
24049;DHT22;12250;50.956;4.746;2022-11-15T04:53:44;12.10;99.90
24049;DHT22;12250;50.956;4.746;2022-11-15T04:56:09;12.10;99.90
24049;DHT22;12250;50.956;4.746;2022-11-15T04:58:35;12.10;99.90
24049;DHT22;12250;50.956;4.746;2022-11-15T05:01:12;12.00;99.90
24049;DHT22;12250;50.956;4.746;2022-11-15T05:03:40;12.00;99.90
24049;DHT22;12250;50.956;4.746;2022-11-15T05:06:24;11.90;99.90
24049;DHT22;12250;50.956;4.746;2022-11-15T05:08:50;11.80;99.90
24049;DHT22;12250;50.956;4.746;2022-11-15T05:11:16;11.70;99.90
24049;DHT22;12250;50.956;4.746;2022-11-15T05:13:41;11.60;99.90
24049;DHT22;12250;50.956;4.746;2022-11-15T05:16:07;11.60;99.90
24049;DHT22;12250;50.956;4.746;2022-11-15T05:18:33;11.50;99.90
24049;DHT22;12250;50.956;4.746;2022-11-15T05:21:10;11.40;99.90
24049;DHT22;12250;50.956;4.746;2022-11-15T05:23:36;11.30;99.90
24049;DHT22;12250;50.956;4.746;2022-11-15T05:26:03;11.40;99.90
24049;DHT22;12250;50.956;4.746;2022-11-15T05:28:29;11.30;99.90
24049;DHT22;12250;50.956;4.746;2022-11-15T05:31:09;11.40;99.90
24049;DHT22;12250;50.956;4.746;2022-11-15T05:33:36;11.40;99.90
24049;DHT22;12250;50.956;4.746;2022-11-15T05:36:27;11.40;99.90
24049;DHT22;12250;50.956;4.746;2022-11-15T05:38:51;11.40;99.90
24049;DHT22;12250;50.956;4.746;2022-11-15T05:41:19;11.30;99.90
24049;DHT22;12250;50.956;4.746;2022-11-15T05:43:46;11.30;99.90
24049;DHT22;12250;50.956;4.746;2022-11-15T05:46:13;11.30;99.90
24049;DHT22;12250;50.956;4.746;2022-11-15T05:48:41;11.30;99.90
24049;DHT22;12250;50.956;4.746;2022-11-15T05:51:08;11.40;99.90
24049;DHT22;12250;50.956;4.746;2022-11-15T05:53:34;11.30;99.90
24049;DHT22;12250;50.956;4.746;2022-11-15T05:56:02;11.30;99.90
24049;DHT22;12250;50.956;4.746;2022-11-15T05:58:28;11.30;99.90
24049;DHT22;12250;50.956;4.746;2022-11-15T06:00:54;11.20;99.90
24049;DHT22;12250;50.956;4.746;2022-11-15T06:03:20;11.20;99.90
24049;DHT22;12250;50.956;4.746;2022-11-15T06:05:45;11.20;99.90
24049;DHT22;12250;50.956;4.746;2022-11-15T06:08:11;11.10;99.90
24049;DHT22;12250;50.956;4.746;2022-11-15T06:10:37;11.00;99.90
24049;DHT22;12250;50.956;4.746;2022-11-15T06:13:04;10.90;99.90
24049;DHT22;12250;50.956;4.746;2022-11-15T06:15:31;10.80;99.90
24049;DHT22;12250;50.956;4.746;2022-11-15T06:17:57;10.70;99.90
24049;DHT22;12250;50.956;4.746;2022-11-15T06:20:24;10.70;99.90
24049;DHT22;12250;50.956;4.746;2022-11-15T06:22:50;10.80;99.90
24049;DHT22;12250;50.956;4.746;2022-11-15T06:25:16;10.80;99.90
24049;DHT22;12250;50.956;4.746;2022-11-15T06:27:42;10.80;99.90
24049;DHT22;12250;50.956;4.746;2022-11-15T06:30:08;10.80;99.90
24049;DHT22;12250;50.956;4.746;2022-11-15T06:32:33;10.70;99.90
24049;DHT22;12250;50.956;4.746;2022-11-15T06:34:59;10.60;99.90
24049;DHT22;12250;50.956;4.746;2022-11-15T06:37:25;10.50;99.90
24049;DHT22;12250;50.956;4.746;2022-11-15T06:39:50;10.40;99.90
24049;DHT22;12250;50.956;4.746;2022-11-15T06:42:16;10.30;99.90
24049;DHT22;12250;50.956;4.746;2022-11-15T06:44:41;10.30;99.90
24049;DHT22;12250;50.956;4.746;2022-11-15T06:47:07;10.10;99.90
24049;DHT22;12250;50.956;4.746;2022-11-15T06:49:33;10.00;99.90
24049;DHT22;12250;50.956;4.746;2022-11-15T06:51:58;10.00;99.90
24049;DHT22;12250;50.956;4.746;2022-11-15T06:54:24;9.90;99.90
24049;DHT22;12250;50.956;4.746;2022-11-15T06:56:50;9.80;99.90
24049;DHT22;12250;50.956;4.746;2022-11-15T06:59:16;9.70;99.90
24049;DHT22;12250;50.956;4.746;2022-11-15T07:01:41;9.70;99.90
24049;DHT22;12250;50.956;4.746;2022-11-15T07:04:07;9.60;99.90
24049;DHT22;12250;50.956;4.746;2022-11-15T07:06:32;9.50;99.90
24049;DHT22;12250;50.956;4.746;2022-11-15T07:08:58;9.50;99.90
24049;DHT22;12250;50.956;4.746;2022-11-15T07:11:24;9.50;99.90
24049;DHT22;12250;50.956;4.746;2022-11-15T07:13:49;9.40;99.90
24049;DHT22;12250;50.956;4.746;2022-11-15T07:16:15;9.40;99.90
24049;DHT22;12250;50.956;4.746;2022-11-15T07:18:41;9.30;99.90
24049;DHT22;12250;50.956;4.746;2022-11-15T07:21:08;9.20;99.90
24049;DHT22;12250;50.956;4.746;2022-11-15T07:23:38;9.20;99.90
24049;DHT22;12250;50.956;4.746;2022-11-15T07:26:04;9.10;99.90
24049;DHT22;12250;50.956;4.746;2022-11-15T07:28:30;9.20;99.90
24049;DHT22;12250;50.956;4.746;2022-11-15T07:30:56;9.20;99.90
24049;DHT22;12250;50.956;4.746;2022-11-15T07:33:22;9.20;99.90
24049;DHT22;12250;50.956;4.746;2022-11-15T07:35:48;9.30;99.90
24049;DHT22;12250;50.956;4.746;2022-11-15T07:38:14;9.20;99.90
24049;DHT22;12250;50.956;4.746;2022-11-15T07:40:40;9.30;99.90
24049;DHT22;12250;50.956;4.746;2022-11-15T07:43:07;9.40;99.90
24049;DHT22;12250;50.956;4.746;2022-11-15T07:45:33;9.50;99.90
24049;DHT22;12250;50.956;4.746;2022-11-15T07:48:00;9.50;99.90
24049;DHT22;12250;50.956;4.746;2022-11-15T07:50:26;9.60;99.90
24049;DHT22;12250;50.956;4.746;2022-11-15T07:52:55;9.60;99.90
24049;DHT22;12250;50.956;4.746;2022-11-15T07:55:22;9.70;99.90
24049;DHT22;12250;50.956;4.746;2022-11-15T07:57:48;9.70;99.90
24049;DHT22;12250;50.956;4.746;2022-11-15T08:00:14;9.80;99.90
24049;DHT22;12250;50.956;4.746;2022-11-15T08:02:40;9.80;99.90
24049;DHT22;12250;50.956;4.746;2022-11-15T08:05:06;9.90;99.90
24049;DHT22;12250;50.956;4.746;2022-11-15T08:07:32;9.90;99.90
24049;DHT22;12250;50.956;4.746;2022-11-15T08:09:58;9.90;99.90
24049;DHT22;12250;50.956;4.746;2022-11-15T08:12:27;10.00;99.90
24049;DHT22;12250;50.956;4.746;2022-11-15T08:14:54;10.00;99.90
24049;DHT22;12250;50.956;4.746;2022-11-15T08:17:22;10.10;99.90
24049;DHT22;12250;50.956;4.746;2022-11-15T08:19:47;10.20;99.90
24049;DHT22;12250;50.956;4.746;2022-11-15T08:22:13;10.20;99.90
24049;DHT22;12250;50.956;4.746;2022-11-15T08:24:39;10.20;99.90
24049;DHT22;12250;50.956;4.746;2022-11-15T08:27:06;10.10;99.90
24049;DHT22;12250;50.956;4.746;2022-11-15T08:29:41;10.00;99.90
24049;DHT22;12250;50.956;4.746;2022-11-15T08:32:07;10.10;99.90
24049;DHT22;12250;50.956;4.746;2022-11-15T08:34:32;10.20;99.90
24049;DHT22;12250;50.956;4.746;2022-11-15T08:36:58;10.20;99.90
24049;DHT22;12250;50.956;4.746;2022-11-15T08:39:24;10.20;99.90
24049;DHT22;12250;50.956;4.746;2022-11-15T08:41:49;10.30;99.90
24049;DHT22;12250;50.956;4.746;2022-11-15T08:44:15;10.20;99.90
24049;DHT22;12250;50.956;4.746;2022-11-15T08:46:41;10.20;99.90
24049;DHT22;12250;50.956;4.746;2022-11-15T08:49:06;10.30;99.90
24049;DHT22;12250;50.956;4.746;2022-11-15T08:51:32;10.30;99.90
24049;DHT22;12250;50.956;4.746;2022-11-15T08:53:58;10.40;99.90
24049;DHT22;12250;50.956;4.746;2022-11-15T08:56:23;10.50;99.90
24049;DHT22;12250;50.956;4.746;2022-11-15T08:58:49;10.40;99.90
24049;DHT22;12250;50.956;4.746;2022-11-15T09:01:16;10.50;99.90
24049;DHT22;12250;50.956;4.746;2022-11-15T09:03:42;10.50;99.90
24049;DHT22;12250;50.956;4.746;2022-11-15T09:06:08;10.60;99.90
24049;DHT22;12250;50.956;4.746;2022-11-15T09:08:34;10.70;99.90
24049;DHT22;12250;50.956;4.746;2022-11-15T09:11:06;10.80;99.90
24049;DHT22;12250;50.956;4.746;2022-11-15T09:13:32;10.90;99.90
24049;DHT22;12250;50.956;4.746;2022-11-15T09:15:59;11.00;99.90
24049;DHT22;12250;50.956;4.746;2022-11-15T09:18:25;11.20;99.90
24049;DHT22;12250;50.956;4.746;2022-11-15T09:20:51;11.60;99.90
24049;DHT22;12250;50.956;4.746;2022-11-15T09:23:16;11.80;99.90
24049;DHT22;12250;50.956;4.746;2022-11-15T09:25:42;11.80;99.90
24049;DHT22;12250;50.956;4.746;2022-11-15T09:28:08;11.90;99.90
24049;DHT22;12250;50.956;4.746;2022-11-15T09:30:34;12.10;99.90
24049;DHT22;12250;50.956;4.746;2022-11-15T09:33:09;12.30;99.90
24049;DHT22;12250;50.956;4.746;2022-11-15T09:35:35;12.70;99.90
24049;DHT22;12250;50.956;4.746;2022-11-15T09:38:02;12.90;99.90
24049;DHT22;12250;50.956;4.746;2022-11-15T09:40:29;12.80;99.90
24049;DHT22;12250;50.956;4.746;2022-11-15T09:48:30;12.50;99.90
24049;DHT22;12250;50.956;4.746;2022-11-15T09:50:59;12.50;99.90
24049;DHT22;12250;50.956;4.746;2022-11-15T09:53:48;12.70;99.90
24049;DHT22;12250;50.956;4.746;2022-11-15T09:56:20;13.20;99.90
24049;DHT22;12250;50.956;4.746;2022-11-15T10:04:12;14.60;99.90
24049;DHT22;12250;50.956;4.746;2022-11-15T10:06:44;14.40;99.90
24049;DHT22;12250;50.956;4.746;2022-11-15T10:09:42;14.40;99.90
24049;DHT22;12250;50.956;4.746;2022-11-15T10:12:09;14.40;99.90
24049;DHT22;12250;50.956;4.746;2022-11-15T10:14:36;14.40;99.90
24049;DHT22;12250;50.956;4.746;2022-11-15T10:22:28;14.40;99.90
24049;DHT22;12250;50.956;4.746;2022-11-15T10:27:42;14.10;99.90
24049;DHT22;12250;50.956;4.746;2022-11-15T10:30:12;14.00;99.90
24049;DHT22;12250;50.956;4.746;2022-11-15T10:32:40;13.80;99.90
24049;DHT22;12250;50.956;4.746;2022-11-15T10:35:23;13.60;99.90
24049;DHT22;12250;50.956;4.746;2022-11-15T10:37:49;13.70;99.90
24049;DHT22;12250;50.956;4.746;2022-11-15T10:40:23;13.80;99.90
24049;DHT22;12250;50.956;4.746;2022-11-15T10:43:10;13.90;99.90
24049;DHT22;12250;50.956;4.746;2022-11-15T10:45:38;13.70;99.90
24049;DHT22;12250;50.956;4.746;2022-11-15T10:50:40;13.40;99.90
24049;DHT22;12250;50.956;4.746;2022-11-15T10:53:44;13.60;99.90
24049;DHT22;12250;50.956;4.746;2022-11-15T10:56:13;13.70;99.90
24049;DHT22;12250;50.956;4.746;2022-11-15T10:58:52;13.80;99.90
24049;DHT22;12250;50.956;4.746;2022-11-15T11:01:28;13.70;99.90
24049;DHT22;12250;50.956;4.746;2022-11-15T11:04:04;13.90;99.90
24049;DHT22;12250;50.956;4.746;2022-11-15T11:06:31;13.90;99.90
24049;DHT22;12250;50.956;4.746;2022-11-15T11:09:32;14.10;99.90
24049;DHT22;12250;50.956;4.746;2022-11-15T11:11:58;14.20;99.90
24049;DHT22;12250;50.956;4.746;2022-11-15T11:28:21;14.50;99.90
24049;DHT22;12250;50.956;4.746;2022-11-15T11:36:48;14.60;99.90
24049;DHT22;12250;50.956;4.746;2022-11-15T11:39:51;14.50;99.90
24049;DHT22;12250;50.956;4.746;2022-11-15T11:48:44;14.80;99.90
24049;DHT22;12250;50.956;4.746;2022-11-15T11:51:39;14.80;99.90
24049;DHT22;12250;50.956;4.746;2022-11-15T11:54:14;15.00;99.90
24049;DHT22;12250;50.956;4.746;2022-11-15T11:56:44;15.20;99.90
24049;DHT22;12250;50.956;4.746;2022-11-15T12:02:09;15.20;99.90
24049;DHT22;12250;50.956;4.746;2022-11-15T12:04:40;15.10;99.90
24049;DHT22;12250;50.956;4.746;2022-11-15T12:07:27;15.00;99.90
24049;DHT22;12250;50.956;4.746;2022-11-15T12:10:23;15.10;99.90
24049;DHT22;12250;50.956;4.746;2022-11-15T12:18:29;14.60;99.90
24049;DHT22;12250;50.956;4.746;2022-11-15T12:21:03;14.60;99.90
24049;DHT22;12250;50.956;4.746;2022-11-15T12:23:34;14.70;99.90
24049;DHT22;12250;50.956;4.746;2022-11-15T12:31:21;14.90;99.90
24049;DHT22;12250;50.956;4.746;2022-11-15T12:33:49;14.90;99.90
24049;DHT22;12250;50.956;4.746;2022-11-15T12:41:19;14.90;99.90
24049;DHT22;12250;50.956;4.746;2022-11-15T12:43:47;14.90;99.90
24049;DHT22;12250;50.956;4.746;2022-11-15T12:48:53;14.80;99.90
24049;DHT22;12250;50.956;4.746;2022-11-15T13:02:42;14.80;99.90
24049;DHT22;12250;50.956;4.746;2022-11-15T13:18:15;14.70;99.90
24049;DHT22;12250;50.956;4.746;2022-11-15T13:20:29;14.90;99.90
24049;DHT22;12250;50.956;4.746;2022-11-15T13:30:36;15.10;99.90
24049;DHT22;12250;50.956;4.746;2022-11-15T13:33:14;15.20;99.90
24049;DHT22;12250;50.956;4.746;2022-11-15T13:35:42;15.30;99.90
24049;DHT22;12250;50.956;4.746;2022-11-15T13:38:27;15.20;99.90
24049;DHT22;12250;50.956;4.746;2022-11-15T13:40:54;15.10;99.90
24049;DHT22;12250;50.956;4.746;2022-11-15T13:46:20;15.00;99.90
24049;DHT22;12250;50.956;4.746;2022-11-15T13:48:50;15.00;99.90
24049;DHT22;12250;50.956;4.746;2022-11-15T13:56:40;14.70;99.90
24049;DHT22;12250;50.956;4.746;2022-11-15T13:59:20;14.70;99.90
24049;DHT22;12250;50.956;4.746;2022-11-15T14:01:49;14.60;99.90
24049;DHT22;12250;50.956;4.746;2022-11-15T14:04:19;14.50;99.90
24049;DHT22;12250;50.956;4.746;2022-11-15T14:06:48;14.60;99.90
24049;DHT22;12250;50.956;4.746;2022-11-15T14:11:52;14.60;99.90
24049;DHT22;12250;50.956;4.746;2022-11-15T14:14:21;14.50;99.90
24049;DHT22;12250;50.956;4.746;2022-11-15T14:16:53;14.50;99.90
24049;DHT22;12250;50.956;4.746;2022-11-15T14:24:35;14.50;99.90
24049;DHT22;12250;50.956;4.746;2022-11-15T14:27:24;14.50;99.90
24049;DHT22;12250;50.956;4.746;2022-11-15T14:29:51;14.40;99.90
24049;DHT22;12250;50.956;4.746;2022-11-15T14:32:18;14.50;99.90
24049;DHT22;12250;50.956;4.746;2022-11-15T14:34:44;14.50;99.90
24049;DHT22;12250;50.956;4.746;2022-11-15T14:39:47;14.40;99.90
24049;DHT22;12250;50.956;4.746;2022-11-15T14:42:13;14.40;99.90
24049;DHT22;12250;50.956;4.746;2022-11-15T14:44:39;14.20;99.90
24049;DHT22;12250;50.956;4.746;2022-11-15T14:47:04;13.90;99.90
24049;DHT22;12250;50.956;4.746;2022-11-15T14:49:30;13.70;99.90
24049;DHT22;12250;50.956;4.746;2022-11-15T14:51:55;13.40;99.90
24049;DHT22;12250;50.956;4.746;2022-11-15T14:54:21;13.20;99.90
24049;DHT22;12250;50.956;4.746;2022-11-15T14:56:47;13.20;99.90
24049;DHT22;12250;50.956;4.746;2022-11-15T14:59:12;13.10;99.90
24049;DHT22;12250;50.956;4.746;2022-11-15T15:01:38;13.00;99.90
24049;DHT22;12250;50.956;4.746;2022-11-15T15:04:04;12.90;99.90
24049;DHT22;12250;50.956;4.746;2022-11-15T15:06:30;12.80;99.90
24049;DHT22;12250;50.956;4.746;2022-11-15T15:08:56;12.80;99.90
24049;DHT22;12250;50.956;4.746;2022-11-15T15:11:28;12.70;99.90
24049;DHT22;12250;50.956;4.746;2022-11-15T15:13:54;12.70;99.90
24049;DHT22;12250;50.956;4.746;2022-11-15T15:16:23;12.70;99.90
24049;DHT22;12250;50.956;4.746;2022-11-15T15:18:49;12.60;99.90
24049;DHT22;12250;50.956;4.746;2022-11-15T15:21:23;12.60;99.90
24049;DHT22;12250;50.956;4.746;2022-11-15T15:23:50;12.50;99.90
24049;DHT22;12250;50.956;4.746;2022-11-15T15:26:16;12.50;99.90
24049;DHT22;12250;50.956;4.746;2022-11-15T15:28:41;12.50;99.90
24049;DHT22;12250;50.956;4.746;2022-11-15T15:31:09;12.50;99.90
24049;DHT22;12250;50.956;4.746;2022-11-15T15:33:35;12.50;99.90
24049;DHT22;12250;50.956;4.746;2022-11-15T15:36:01;12.40;99.90
24049;DHT22;12250;50.956;4.746;2022-11-15T15:38:27;12.50;99.90
24049;DHT22;12250;50.956;4.746;2022-11-15T15:40:52;12.50;99.90
24049;DHT22;12250;50.956;4.746;2022-11-15T15:43:18;12.40;99.90
24049;DHT22;12250;50.956;4.746;2022-11-15T15:45:44;12.30;99.90
24049;DHT22;12250;50.956;4.746;2022-11-15T15:48:17;12.30;99.90
24049;DHT22;12250;50.956;4.746;2022-11-15T15:50:43;12.30;99.90
24049;DHT22;12250;50.956;4.746;2022-11-15T15:53:09;12.40;99.90
24049;DHT22;12250;50.956;4.746;2022-11-15T15:55:36;12.30;99.90
24049;DHT22;12250;50.956;4.746;2022-11-15T15:58:03;12.30;99.90
24049;DHT22;12250;50.956;4.746;2022-11-15T16:00:28;12.30;99.90
24049;DHT22;12250;50.956;4.746;2022-11-15T16:02:54;12.20;99.90
24049;DHT22;12250;50.956;4.746;2022-11-15T16:05:21;12.30;99.90
24049;DHT22;12250;50.956;4.746;2022-11-15T16:07:47;12.30;99.90
24049;DHT22;12250;50.956;4.746;2022-11-15T16:10:23;12.40;99.90
24049;DHT22;12250;50.956;4.746;2022-11-15T16:12:50;12.30;99.90
24049;DHT22;12250;50.956;4.746;2022-11-15T16:15:17;12.20;99.90
24049;DHT22;12250;50.956;4.746;2022-11-15T16:17:52;12.20;99.90
24049;DHT22;12250;50.956;4.746;2022-11-15T16:23:03;12.10;99.90
24049;DHT22;12250;50.956;4.746;2022-11-15T16:25:32;12.10;99.90
24049;DHT22;12250;50.956;4.746;2022-11-15T16:27:58;12.20;99.90
24049;DHT22;12250;50.956;4.746;2022-11-15T16:30:24;12.10;99.90
24049;DHT22;12250;50.956;4.746;2022-11-15T16:32:50;12.20;99.90
24049;DHT22;12250;50.956;4.746;2022-11-15T16:35:16;12.10;99.90
24049;DHT22;12250;50.956;4.746;2022-11-15T16:37:42;12.10;99.90
24049;DHT22;12250;50.956;4.746;2022-11-15T16:40:23;12.10;99.90
24049;DHT22;12250;50.956;4.746;2022-11-15T16:42:49;12.10;99.90
24049;DHT22;12250;50.956;4.746;2022-11-15T16:45:15;12.10;99.90
24049;DHT22;12250;50.956;4.746;2022-11-15T16:47:41;12.20;99.90
24049;DHT22;12250;50.956;4.746;2022-11-15T16:50:20;12.20;99.90
24049;DHT22;12250;50.956;4.746;2022-11-15T16:52:52;12.10;99.90
24049;DHT22;12250;50.956;4.746;2022-11-15T16:55:20;12.20;99.90
24049;DHT22;12250;50.956;4.746;2022-11-15T16:57:46;12.20;99.90
24049;DHT22;12250;50.956;4.746;2022-11-15T17:00:13;12.20;99.90
24049;DHT22;12250;50.956;4.746;2022-11-15T17:02:47;12.20;99.90
24049;DHT22;12250;50.956;4.746;2022-11-15T17:05:15;12.20;99.90
24049;DHT22;12250;50.956;4.746;2022-11-15T17:07:41;12.20;99.90
24049;DHT22;12250;50.956;4.746;2022-11-15T17:10:08;12.10;99.90
24049;DHT22;12250;50.956;4.746;2022-11-15T17:12:35;12.10;99.90
24049;DHT22;12250;50.956;4.746;2022-11-15T17:15:01;12.10;99.90
24049;DHT22;12250;50.956;4.746;2022-11-15T17:17:29;12.00;99.90
24049;DHT22;12250;50.956;4.746;2022-11-15T17:19:55;12.10;99.90
24049;DHT22;12250;50.956;4.746;2022-11-15T17:22:21;12.10;99.90
24049;DHT22;12250;50.956;4.746;2022-11-15T17:24:47;12.10;99.90
24049;DHT22;12250;50.956;4.746;2022-11-15T17:27:13;12.10;99.90
24049;DHT22;12250;50.956;4.746;2022-11-15T17:29:40;12.10;99.90
24049;DHT22;12250;50.956;4.746;2022-11-15T17:32:06;12.20;99.90
24049;DHT22;12250;50.956;4.746;2022-11-15T17:34:32;12.30;99.90
24049;DHT22;12250;50.956;4.746;2022-11-15T17:36:57;12.40;99.90
24049;DHT22;12250;50.956;4.746;2022-11-15T17:39:23;12.30;99.90
24049;DHT22;12250;50.956;4.746;2022-11-15T17:41:49;12.30;99.90
24049;DHT22;12250;50.956;4.746;2022-11-15T17:44:15;12.40;99.90
24049;DHT22;12250;50.956;4.746;2022-11-15T17:46:42;12.40;99.90
24049;DHT22;12250;50.956;4.746;2022-11-15T17:49:08;12.50;99.90
24049;DHT22;12250;50.956;4.746;2022-11-15T17:51:33;12.50;99.90
24049;DHT22;12250;50.956;4.746;2022-11-15T17:53:59;12.40;99.90
24049;DHT22;12250;50.956;4.746;2022-11-15T17:56:26;12.40;99.90
24049;DHT22;12250;50.956;4.746;2022-11-15T17:58:55;12.50;99.90
24049;DHT22;12250;50.956;4.746;2022-11-15T18:01:25;12.40;99.90
24049;DHT22;12250;50.956;4.746;2022-11-15T18:03:51;12.50;99.90
24049;DHT22;12250;50.956;4.746;2022-11-15T18:06:19;12.50;99.90
24049;DHT22;12250;50.956;4.746;2022-11-15T18:08:46;12.50;99.90
24049;DHT22;12250;50.956;4.746;2022-11-15T18:13:44;12.50;99.90
24049;DHT22;12250;50.956;4.746;2022-11-15T18:16:12;12.50;99.90